Shrnutí závodu (Trať: Kyalami | Sezóna: 30 | Závod: 17 | Skupina: Master - 3)

Sezóna:  Závod:

Zvolte jinou kategorii:

Poz. Změna Pneu Země Jméno manažera Čas Kol Zastávek v boxech Nejlepší kolo Průměrná rychlost Nejlepší čas v boxech
01. +7 +7 Badyear   Yves Soers 1h24:47.442 72 1 1:09.211 217.10km/h 20.731s
02. +1 +1 Badyear   Pedro Nazaré + 12.323 72 2 1:08.963 216.57km/h 21.091s
03. +8 +8 Badyear   Raimonds Urtāns + 13.120 72 1 1:09.020 216.54km/h 22.743s
04. +10 +10 Badyear   Luis Uranga + 15.204 72 1 1:09.054 216.45km/h 16.597s
05. +11 +11 Badyear   Alex Slawson + 26.136 72 1 1:09.264 215.99km/h 18.693s
06. -2 -2 Badyear   Apostolis Goutzos + 33.703 72 2 1:09.271 215.67km/h 19.919s
07. +6 +6 Badyear   Zoltan Csaba + 41.940 72 2 1:09.140 215.32km/h 18.351s
08. +15 +15 Badyear   Erkki Tempel + 59.384 72 1 1:09.333 214.59km/h 25.878s
09. +11 +11 Badyear   Jose Lopez + 1:20.168 71 1 1:09.680 213.73km/h 20.487s
10. +9 +9 Badyear   Borce Stojanovski + 2:14.197 71 3 1:09.288 211.52km/h 19.775s
11. +16 +16 Badyear   Kostas Farsalinos + 2:42.959 70 1 1:09.971 210.36km/h 23.509s
12. +6 +6 Badyear   Aertas Vladarskis + 3:19.520 70 2 1:11.126 208.91km/h 18.999s
13. +18 +18 Pipirelli   Toni Söyrinki + 3:23.661 70 1 1:11.495 208.74km/h 18.857s
14. -5 -5 Badyear   Roman Maksimenkov + 3:23.701 70 2 1:11.610 208.74km/h 20.616s
15. +18 +18 Badyear   Paul Patrascu + 4:07.389 69 1 1:12.434 207.03km/h 22.358s
16. -10 -10 Badyear   Stas Prost + 4:33.044 69 2 1:11.557 206.04km/h 17.606s
17. -7 -7 Badyear   Oskar Fastak + 6:29.264 67 3 1:11.720 201.67km/h 18.343s
18. -17 -17 Badyear   Michail Ivanov + 6:29.719 67 4 1:11.609 201.65km/h 17.444s
19. -2 -2 Badyear   Marko Radakovic + 6:42.441 67 1 1:12.395 201.18km/h 19.095s
20. +8 +8 Badyear   Giedrius Soroka + 7:13.898 66 1 1:12.850 200.04km/h 29.998s
21. +8 +8 Badyear   Markus Toivonen + 7:14.236 66 3 1:11.567 200.03km/h 24.595s
22. +8 +8 Badyear   William Reagan + 7:26.251 66 1 1:12.870 199.59km/h 21.717s
23. +2 +2 Badyear   Aleksey Odegov + 7:32.060 66 1 1:12.656 199.38km/h 19.169s
24. Žádná změna ±0 Badyear   Vilius Ceponis + 7:54.706 66 2 1:12.521 198.57km/h 24.021s
25. -4 -4 Badyear   Vytautas Lesciauskas Technické problémy 65 1 1:12.555 197.22km/h 18.839s
Neklasifikovaní
26. +9 +9 Yokomama   Markku Nurmela + 12:20.491 62 2 1:14.694    26.528s
27. +9 +9 Yokomama   Sam Tipple + 13:13.000 61 1 1:16.134    25.478s
28. -13 -13 Badyear   Casper Romkes Technické problémy 54 1 1:09.891    22.903s
29. +3 +3 Badyear   Jo Van Wijmeersch Technické problémy 52 2 1:12.605    18.508s
30. -8 -8 Badyear   Jan Pavlicek Technické problémy 46 1 1:12.500    19.019s
31. -29 -29 Yokomama   Filipe Miguel Technické problémy 33 3 1:09.095    18.057s
32. -6 -6 Badyear   Juan Pablo Lopez Technické problémy 26 0 1:13.028    -
33. -21 -21 Badyear   Pavlin Tzvetanov Technické problémy 26 2 1:12.405    21.582s
34. Žádná změna ±0 Badyear   Olver Hernández Technické problémy 21 0 1:13.387    -
35. -28 -28 Pipirelli   Michal Konopka Technické problémy 16 1 1:11.580    20.986s
36. -31 -31 Yokomama   João Monteiro Nehoda na startu 0 0 -    -